Main page
METAR-TAF:

METAR-TAF

Airports :

María Dolores Airport

Los Ángeles, Chile

latitude: 37-24-07S, longitude: 072-25-32W, elevation: 114 m

Current weather observation

The report was made 23 minutes ago, at 13:00 UTC
Wind 11 kt from the South
Temperature 9°C
Humidity 76%
Pressure 1019 hPa
Scattered clouds at a height of 2000 ft
Broken clouds at a height of 6600 ft

METAR: SCGE 281300Z 19011KT SCT020 BKN066 09/05 Q1019

Time: 09:23 (13:23 UTC)


TAF: missing

Weather observations and forecasts of more than 4000 airports (METAR and TAF reports).

The available stations are represented by yellow and red dots on the map.

Hover mouse over dot to see the name of the station.

Then click to see weather observations and forecasts.

To change the map : click on the green buttons with a black cross to zoom in, on the green button with a dash to zoom out, or on the green arrows for adjacent maps.


METAR-TAF: